sensor_id;sensor_type;location;lat;lon;timestamp;temperature;humidity
29731;DHT22;16639;51.488;0.152;2023-02-03T00:01:23;9.90;99.90
29731;DHT22;16639;51.488;0.152;2023-02-03T00:03:51;10.00;99.90
29731;DHT22;16639;51.488;0.152;2023-02-03T00:06:18;9.90;99.90
29731;DHT22;16639;51.488;0.152;2023-02-03T00:08:46;9.90;99.90
29731;DHT22;16639;51.488;0.152;2023-02-03T00:11:14;9.90;99.90
29731;DHT22;16639;51.488;0.152;2023-02-03T00:13:41;9.90;99.90
29731;DHT22;16639;51.488;0.152;2023-02-03T00:16:08;9.90;99.90
29731;DHT22;16639;51.488;0.152;2023-02-03T00:18:36;9.90;99.90
29731;DHT22;16639;51.488;0.152;2023-02-03T00:21:04;9.90;99.90
29731;DHT22;16639;51.488;0.152;2023-02-03T00:23:31;9.80;99.90
29731;DHT22;16639;51.488;0.152;2023-02-03T00:26:14;9.80;99.90
29731;DHT22;16639;51.488;0.152;2023-02-03T00:28:42;9.80;99.90
29731;DHT22;16639;51.488;0.152;2023-02-03T00:31:17;9.80;99.90
29731;DHT22;16639;51.488;0.152;2023-02-03T00:33:44;10.10;99.90
29731;DHT22;16639;51.488;0.152;2023-02-03T00:36:12;9.80;99.90
29731;DHT22;16639;51.488;0.152;2023-02-03T00:38:40;9.80;99.90
29731;DHT22;16639;51.488;0.152;2023-02-03T00:41:07;9.80;99.90
29731;DHT22;16639;51.488;0.152;2023-02-03T00:43:35;9.90;99.90
29731;DHT22;16639;51.488;0.152;2023-02-03T00:46:03;9.90;99.90
29731;DHT22;16639;51.488;0.152;2023-02-03T00:48:30;9.80;99.90
29731;DHT22;16639;51.488;0.152;2023-02-03T00:50:58;9.80;99.90
29731;DHT22;16639;51.488;0.152;2023-02-03T00:53:25;10.60;99.90
29731;DHT22;16639;51.488;0.152;2023-02-03T00:55:52;9.90;99.90
29731;DHT22;16639;51.488;0.152;2023-02-03T00:58:20;9.90;99.90
29731;DHT22;16639;51.488;0.152;2023-02-03T01:00:47;10.20;99.90
29731;DHT22;16639;51.488;0.152;2023-02-03T01:03:15;9.90;99.90
29731;DHT22;16639;51.488;0.152;2023-02-03T01:05:43;9.90;99.90
29731;DHT22;16639;51.488;0.152;2023-02-03T01:08:11;9.90;99.90
29731;DHT22;16639;51.488;0.152;2023-02-03T01:10:39;9.90;99.90
29731;DHT22;16639;51.488;0.152;2023-02-03T01:13:07;9.90;99.90
29731;DHT22;16639;51.488;0.152;2023-02-03T01:15:35;9.90;99.90
29731;DHT22;16639;51.488;0.152;2023-02-03T01:18:02;9.90;99.90
29731;DHT22;16639;51.488;0.152;2023-02-03T01:20:29;10.00;99.90
29731;DHT22;16639;51.488;0.152;2023-02-03T01:22:57;9.90;99.90
29731;DHT22;16639;51.488;0.152;2023-02-03T01:25:24;10.10;99.90
29731;DHT22;16639;51.488;0.152;2023-02-03T01:27:52;10.00;99.90
29731;DHT22;16639;51.488;0.152;2023-02-03T01:30:19;10.60;99.90
29731;DHT22;16639;51.488;0.152;2023-02-03T01:32:48;10.00;99.90
29731;DHT22;16639;51.488;0.152;2023-02-03T01:35:15;11.10;99.90
29731;DHT22;16639;51.488;0.152;2023-02-03T01:37:43;10.00;99.90
29731;DHT22;16639;51.488;0.152;2023-02-03T01:40:11;10.10;99.90
29731;DHT22;16639;51.488;0.152;2023-02-03T01:42:39;10.10;99.90
29731;DHT22;16639;51.488;0.152;2023-02-03T01:45:08;10.10;99.90
29731;DHT22;16639;51.488;0.152;2023-02-03T01:47:47;10.10;99.90
29731;DHT22;16639;51.488;0.152;2023-02-03T01:50:24;10.10;99.90
29731;DHT22;16639;51.488;0.152;2023-02-03T01:53:00;10.10;99.90
29731;DHT22;16639;51.488;0.152;2023-02-03T01:55:42;10.10;99.90
29731;DHT22;16639;51.488;0.152;2023-02-03T02:00:43;10.10;99.90
29731;DHT22;16639;51.488;0.152;2023-02-03T02:03:12;9.90;99.90
29731;DHT22;16639;51.488;0.152;2023-02-03T02:05:58;10.10;99.90
29731;DHT22;16639;51.488;0.152;2023-02-03T02:08:27;10.20;99.90
29731;DHT22;16639;51.488;0.152;2023-02-03T02:10:57;11.00;99.90
29731;DHT22;16639;51.488;0.152;2023-02-03T02:13:31;10.10;99.90
29731;DHT22;16639;51.488;0.152;2023-02-03T02:18:53;10.00;99.90
29731;DHT22;16639;51.488;0.152;2023-02-03T02:21:39;10.20;99.90
29731;DHT22;16639;51.488;0.152;2023-02-03T02:44:31;10.20;99.90
29731;DHT22;16639;51.488;0.152;2023-02-03T02:47:04;10.20;99.90
29731;DHT22;16639;51.488;0.152;2023-02-03T02:49:51;10.20;99.90
29731;DHT22;16639;51.488;0.152;2023-02-03T02:52:21;10.20;99.90
29731;DHT22;16639;51.488;0.152;2023-02-03T02:54:52;10.20;99.90
29731;DHT22;16639;51.488;0.152;2023-02-03T02:57:23;10.20;99.90
29731;DHT22;16639;51.488;0.152;2023-02-03T02:59:52;10.20;99.90
29731;DHT22;16639;51.488;0.152;2023-02-03T03:02:20;10.20;99.90
29731;DHT22;16639;51.488;0.152;2023-02-03T03:04:48;10.00;99.90
29731;DHT22;16639;51.488;0.152;2023-02-03T03:07:24;10.10;99.90
29731;DHT22;16639;51.488;0.152;2023-02-03T03:09:57;10.10;99.90
29731;DHT22;16639;51.488;0.152;2023-02-03T03:12:31;10.10;99.90
29731;DHT22;16639;51.488;0.152;2023-02-03T03:15:03;10.10;99.90
29731;DHT22;16639;51.488;0.152;2023-02-03T03:17:39;9.60;99.90
29731;DHT22;16639;51.488;0.152;2023-02-03T03:20:11;10.00;99.90
29731;DHT22;16639;51.488;0.152;2023-02-03T03:22:46;10.00;99.90
29731;DHT22;16639;51.488;0.152;2023-02-03T03:25:21;10.00;99.90
29731;DHT22;16639;51.488;0.152;2023-02-03T03:27:55;10.00;99.90
29731;DHT22;16639;51.488;0.152;2023-02-03T03:30:29;10.00;99.90
29731;DHT22;16639;51.488;0.152;2023-02-03T03:33:00;9.90;99.90
29731;DHT22;16639;51.488;0.152;2023-02-03T03:35:42;9.90;99.90
29731;DHT22;16639;51.488;0.152;2023-02-03T03:38:19;9.90;99.90
29731;DHT22;16639;51.488;0.152;2023-02-03T03:40:50;9.90;99.90
29731;DHT22;16639;51.488;0.152;2023-02-03T03:43:21;9.90;99.90
29731;DHT22;16639;51.488;0.152;2023-02-03T03:46:00;10.10;99.90
29731;DHT22;16639;51.488;0.152;2023-02-03T03:51:39;9.90;99.90
29731;DHT22;16639;51.488;0.152;2023-02-03T03:54:11;9.80;99.90
29731;DHT22;16639;51.488;0.152;2023-02-03T03:59:31;9.70;99.90
29731;DHT22;16639;51.488;0.152;2023-02-03T04:02:00;9.80;99.90
29731;DHT22;16639;51.488;0.152;2023-02-03T04:04:33;9.70;99.90
29731;DHT22;16639;51.488;0.152;2023-02-03T04:07:01;9.70;99.90
29731;DHT22;16639;51.488;0.152;2023-02-03T04:09:28;9.80;99.90
29731;DHT22;16639;51.488;0.152;2023-02-03T04:11:55;9.80;99.90
29731;DHT22;16639;51.488;0.152;2023-02-03T04:14:34;9.80;99.90
29731;DHT22;16639;51.488;0.152;2023-02-03T04:17:04;9.70;99.90
29731;DHT22;16639;51.488;0.152;2023-02-03T04:19:31;9.80;99.90
29731;DHT22;16639;51.488;0.152;2023-02-03T04:21:58;9.80;99.90
29731;DHT22;16639;51.488;0.152;2023-02-03T04:24:27;9.70;99.90
29731;DHT22;16639;51.488;0.152;2023-02-03T04:26:54;9.70;99.90
29731;DHT22;16639;51.488;0.152;2023-02-03T04:29:21;9.70;99.90
29731;DHT22;16639;51.488;0.152;2023-02-03T04:31:49;9.70;99.90
29731;DHT22;16639;51.488;0.152;2023-02-03T04:34:16;9.90;99.90
29731;DHT22;16639;51.488;0.152;2023-02-03T04:36:44;9.70;99.90
29731;DHT22;16639;51.488;0.152;2023-02-03T04:39:11;9.70;99.90
29731;DHT22;16639;51.488;0.152;2023-02-03T04:41:38;9.60;99.90
29731;DHT22;16639;51.488;0.152;2023-02-03T04:44:06;9.70;99.90
29731;DHT22;16639;51.488;0.152;2023-02-03T04:46:33;9.70;99.90
29731;DHT22;16639;51.488;0.152;2023-02-03T04:49:01;9.60;99.90
29731;DHT22;16639;51.488;0.152;2023-02-03T04:51:28;9.60;99.90
29731;DHT22;16639;51.488;0.152;2023-02-03T04:53:56;9.60;99.90
29731;DHT22;16639;51.488;0.152;2023-02-03T04:56:24;9.60;99.90
29731;DHT22;16639;51.488;0.152;2023-02-03T04:58:52;9.70;99.90
29731;DHT22;16639;51.488;0.152;2023-02-03T05:01:21;9.60;99.90
29731;DHT22;16639;51.488;0.152;2023-02-03T05:03:49;9.70;99.90
29731;DHT22;16639;51.488;0.152;2023-02-03T05:06:16;9.70;99.90
29731;DHT22;16639;51.488;0.152;2023-02-03T05:08:48;9.70;99.90
29731;DHT22;16639;51.488;0.152;2023-02-03T05:11:15;9.70;99.90
29731;DHT22;16639;51.488;0.152;2023-02-03T05:13:42;9.70;99.90
29731;DHT22;16639;51.488;0.152;2023-02-03T05:16:10;9.70;99.90
29731;DHT22;16639;51.488;0.152;2023-02-03T05:18:37;9.70;99.90
29731;DHT22;16639;51.488;0.152;2023-02-03T05:21:05;9.70;99.90
29731;DHT22;16639;51.488;0.152;2023-02-03T05:23:33;9.70;99.90
29731;DHT22;16639;51.488;0.152;2023-02-03T05:26:03;9.70;99.90
29731;DHT22;16639;51.488;0.152;2023-02-03T05:28:30;9.70;99.90
29731;DHT22;16639;51.488;0.152;2023-02-03T05:30:58;9.70;99.90
29731;DHT22;16639;51.488;0.152;2023-02-03T05:33:27;9.70;99.90
29731;DHT22;16639;51.488;0.152;2023-02-03T05:35:55;9.70;99.90
29731;DHT22;16639;51.488;0.152;2023-02-03T05:38:22;9.70;99.90
29731;DHT22;16639;51.488;0.152;2023-02-03T05:40:51;9.60;99.90
29731;DHT22;16639;51.488;0.152;2023-02-03T05:43:37;9.70;99.90
29731;DHT22;16639;51.488;0.152;2023-02-03T05:46:06;9.70;99.90
29731;DHT22;16639;51.488;0.152;2023-02-03T05:48:33;8.30;99.90
29731;DHT22;16639;51.488;0.152;2023-02-03T05:51:01;9.70;99.90
29731;DHT22;16639;51.488;0.152;2023-02-03T05:53:28;9.60;99.90
29731;DHT22;16639;51.488;0.152;2023-02-03T05:55:56;9.60;99.90
29731;DHT22;16639;51.488;0.152;2023-02-03T05:58:23;9.60;99.90
29731;DHT22;16639;51.488;0.152;2023-02-03T06:00:51;9.60;99.90
29731;DHT22;16639;51.488;0.152;2023-02-03T06:03:18;9.60;99.90
29731;DHT22;16639;51.488;0.152;2023-02-03T06:05:45;9.60;99.90
29731;DHT22;16639;51.488;0.152;2023-02-03T06:08:13;9.60;99.90
29731;DHT22;16639;51.488;0.152;2023-02-03T06:10:42;9.60;99.90
29731;DHT22;16639;51.488;0.152;2023-02-03T06:13:12;9.60;99.90
29731;DHT22;16639;51.488;0.152;2023-02-03T06:15:39;9.60;99.90
29731;DHT22;16639;51.488;0.152;2023-02-03T06:18:08;9.60;99.90
29731;DHT22;16639;51.488;0.152;2023-02-03T06:20:35;9.60;99.90
29731;DHT22;16639;51.488;0.152;2023-02-03T06:23:03;9.70;99.90
29731;DHT22;16639;51.488;0.152;2023-02-03T06:25:30;8.90;99.90
29731;DHT22;16639;51.488;0.152;2023-02-03T06:27:58;9.70;99.90
29731;DHT22;16639;51.488;0.152;2023-02-03T06:30:26;9.60;99.90
29731;DHT22;16639;51.488;0.152;2023-02-03T06:32:54;9.70;99.90
29731;DHT22;16639;51.488;0.152;2023-02-03T06:35:23;9.60;99.90
29731;DHT22;16639;51.488;0.152;2023-02-03T06:37:50;9.70;99.90
29731;DHT22;16639;51.488;0.152;2023-02-03T06:40:18;9.70;99.90
29731;DHT22;16639;51.488;0.152;2023-02-03T06:42:47;9.70;99.90
29731;DHT22;16639;51.488;0.152;2023-02-03T06:45:15;9.70;99.90
29731;DHT22;16639;51.488;0.152;2023-02-03T06:47:43;9.70;99.90
29731;DHT22;16639;51.488;0.152;2023-02-03T06:50:14;9.70;99.90
29731;DHT22;16639;51.488;0.152;2023-02-03T06:52:42;9.70;99.90
29731;DHT22;16639;51.488;0.152;2023-02-03T06:55:09;9.70;99.90
29731;DHT22;16639;51.488;0.152;2023-02-03T06:57:43;10.10;99.90
29731;DHT22;16639;51.488;0.152;2023-02-03T07:00:12;9.70;99.90
29731;DHT22;16639;51.488;0.152;2023-02-03T07:02:42;9.70;99.90
29731;DHT22;16639;51.488;0.152;2023-02-03T07:05:10;9.70;99.90
29731;DHT22;16639;51.488;0.152;2023-02-03T07:07:40;9.60;99.90
29731;DHT22;16639;51.488;0.152;2023-02-03T07:10:08;9.60;99.90
29731;DHT22;16639;51.488;0.152;2023-02-03T07:12:36;9.70;99.90
29731;DHT22;16639;51.488;0.152;2023-02-03T07:15:05;9.70;99.90
29731;DHT22;16639;51.488;0.152;2023-02-03T07:17:33;9.50;99.90
29731;DHT22;16639;51.488;0.152;2023-02-03T07:20:00;9.70;99.90
29731;DHT22;16639;51.488;0.152;2023-02-03T07:22:28;9.70;99.90
29731;DHT22;16639;51.488;0.152;2023-02-03T07:24:55;9.80;99.90
29731;DHT22;16639;51.488;0.152;2023-02-03T07:27:25;9.70;99.90
29731;DHT22;16639;51.488;0.152;2023-02-03T07:29:54;9.70;99.90
29731;DHT22;16639;51.488;0.152;2023-02-03T07:32:21;9.70;99.90
29731;DHT22;16639;51.488;0.152;2023-02-03T07:34:49;9.70;99.90
29731;DHT22;16639;51.488;0.152;2023-02-03T07:37:16;9.70;99.90
29731;DHT22;16639;51.488;0.152;2023-02-03T07:39:44;9.70;99.90
29731;DHT22;16639;51.488;0.152;2023-02-03T07:42:12;9.70;99.90
29731;DHT22;16639;51.488;0.152;2023-02-03T07:44:40;9.70;99.90
29731;DHT22;16639;51.488;0.152;2023-02-03T07:47:07;9.70;99.90
29731;DHT22;16639;51.488;0.152;2023-02-03T07:49:34;9.70;99.90
29731;DHT22;16639;51.488;0.152;2023-02-03T07:52:01;9.80;99.90
29731;DHT22;16639;51.488;0.152;2023-02-03T07:54:29;9.80;99.90
29731;DHT22;16639;51.488;0.152;2023-02-03T07:56:57;9.20;99.90
29731;DHT22;16639;51.488;0.152;2023-02-03T07:59:24;9.80;99.90
29731;DHT22;16639;51.488;0.152;2023-02-03T08:01:52;9.80;99.90
29731;DHT22;16639;51.488;0.152;2023-02-03T08:04:22;9.80;99.90
29731;DHT22;16639;51.488;0.152;2023-02-03T08:06:50;9.80;99.90
29731;DHT22;16639;51.488;0.152;2023-02-03T08:09:17;9.80;99.90
29731;DHT22;16639;51.488;0.152;2023-02-03T08:11:45;9.90;99.90
29731;DHT22;16639;51.488;0.152;2023-02-03T08:14:12;9.80;99.90
29731;DHT22;16639;51.488;0.152;2023-02-03T08:16:40;9.90;99.90
29731;DHT22;16639;51.488;0.152;2023-02-03T08:19:07;9.80;99.90
29731;DHT22;16639;51.488;0.152;2023-02-03T08:21:34;9.90;99.90
29731;DHT22;16639;51.488;0.152;2023-02-03T08:24:03;9.90;99.90
29731;DHT22;16639;51.488;0.152;2023-02-03T08:26:31;9.90;99.90
29731;DHT22;16639;51.488;0.152;2023-02-03T08:28:58;9.90;99.90
29731;DHT22;16639;51.488;0.152;2023-02-03T08:31:26;9.80;99.90
29731;DHT22;16639;51.488;0.152;2023-02-03T08:33:54;9.90;99.90
29731;DHT22;16639;51.488;0.152;2023-02-03T08:36:22;10.00;99.90
29731;DHT22;16639;51.488;0.152;2023-02-03T08:38:49;9.90;99.90
29731;DHT22;16639;51.488;0.152;2023-02-03T08:41:17;9.90;99.90
29731;DHT22;16639;51.488;0.152;2023-02-03T08:43:44;9.90;99.90
29731;DHT22;16639;51.488;0.152;2023-02-03T08:46:12;9.90;99.90
29731;DHT22;16639;51.488;0.152;2023-02-03T08:48:41;9.90;99.90
29731;DHT22;16639;51.488;0.152;2023-02-03T08:51:13;10.00;99.90
29731;DHT22;16639;51.488;0.152;2023-02-03T08:53:43;10.00;99.90
29731;DHT22;16639;51.488;0.152;2023-02-03T08:56:11;10.00;99.90
29731;DHT22;16639;51.488;0.152;2023-02-03T08:58:39;10.00;99.90
29731;DHT22;16639;51.488;0.152;2023-02-03T09:01:11;10.00;99.90
29731;DHT22;16639;51.488;0.152;2023-02-03T09:03:39;10.10;99.90
29731;DHT22;16639;51.488;0.152;2023-02-03T09:06:08;10.10;99.90
29731;DHT22;16639;51.488;0.152;2023-02-03T09:08:38;10.20;99.90
29731;DHT22;16639;51.488;0.152;2023-02-03T09:11:10;10.20;99.90
29731;DHT22;16639;51.488;0.152;2023-02-03T09:13:38;10.30;99.90
29731;DHT22;16639;51.488;0.152;2023-02-03T09:16:09;10.30;99.90
29731;DHT22;16639;51.488;0.152;2023-02-03T09:18:37;10.40;99.90
29731;DHT22;16639;51.488;0.152;2023-02-03T09:21:07;10.40;99.90
29731;DHT22;16639;51.488;0.152;2023-02-03T09:23:34;10.50;99.90
29731;DHT22;16639;51.488;0.152;2023-02-03T09:26:03;10.50;99.90
29731;DHT22;16639;51.488;0.152;2023-02-03T09:28:31;10.60;99.90
29731;DHT22;16639;51.488;0.152;2023-02-03T09:31:05;10.60;99.90
29731;DHT22;16639;51.488;0.152;2023-02-03T09:33:33;10.60;99.90
29731;DHT22;16639;51.488;0.152;2023-02-03T09:36:01;10.60;99.90
29731;DHT22;16639;51.488;0.152;2023-02-03T09:38:30;10.70;99.90
29731;DHT22;16639;51.488;0.152;2023-02-03T09:44:12;10.70;99.90
29731;DHT22;16639;51.488;0.152;2023-02-03T09:46:55;10.80;99.90
29731;DHT22;16639;51.488;0.152;2023-02-03T09:49:46;10.80;99.90
29731;DHT22;16639;51.488;0.152;2023-02-03T09:55:32;10.80;99.90
29731;DHT22;16639;51.488;0.152;2023-02-03T09:58:16;10.80;99.90
29731;DHT22;16639;51.488;0.152;2023-02-03T10:00:57;11.00;99.90
29731;DHT22;16639;51.488;0.152;2023-02-03T10:22:37;10.60;99.90
29731;DHT22;16639;51.488;0.152;2023-02-03T10:27:47;10.70;99.90
29731;DHT22;16639;51.488;0.152;2023-02-03T10:30:20;10.70;99.90
29731;DHT22;16639;51.488;0.152;2023-02-03T10:32:56;10.70;99.90
29731;DHT22;16639;51.488;0.152;2023-02-03T10:35:36;10.80;99.90
29731;DHT22;16639;51.488;0.152;2023-02-03T10:38:13;10.70;99.90
29731;DHT22;16639;51.488;0.152;2023-02-03T10:40:41;10.80;99.90
29731;DHT22;16639;51.488;0.152;2023-02-03T10:43:09;10.80;99.90
29731;DHT22;16639;51.488;0.152;2023-02-03T10:45:57;10.80;99.90
29731;DHT22;16639;51.488;0.152;2023-02-03T10:48:25;10.80;99.90
29731;DHT22;16639;51.488;0.152;2023-02-03T10:50:53;10.80;99.90
29731;DHT22;16639;51.488;0.152;2023-02-03T10:53:25;10.80;99.90
29731;DHT22;16639;51.488;0.152;2023-02-03T10:56:02;10.80;99.90
29731;DHT22;16639;51.488;0.152;2023-02-03T10:58:33;10.80;99.90
29731;DHT22;16639;51.488;0.152;2023-02-03T11:03:58;10.70;99.90
29731;DHT22;16639;51.488;0.152;2023-02-03T11:06:27;10.90;99.90
29731;DHT22;16639;51.488;0.152;2023-02-03T11:08:55;10.90;99.90
29731;DHT22;16639;51.488;0.152;2023-02-03T11:11:31;11.00;99.90
29731;DHT22;16639;51.488;0.152;2023-02-03T11:16:32;11.00;99.90
29731;DHT22;16639;51.488;0.152;2023-02-03T11:19:02;11.10;99.90
29731;DHT22;16639;51.488;0.152;2023-02-03T11:24:22;11.10;99.90
29731;DHT22;16639;51.488;0.152;2023-02-03T11:29:26;11.10;99.90
29731;DHT22;16639;51.488;0.152;2023-02-03T11:31:57;11.20;99.90
29731;DHT22;16639;51.488;0.152;2023-02-03T11:34:30;11.30;99.90
29731;DHT22;16639;51.488;0.152;2023-02-03T11:37:31;11.30;99.90
29731;DHT22;16639;51.488;0.152;2023-02-03T11:42:35;11.30;99.90
29731;DHT22;16639;51.488;0.152;2023-02-03T11:47:51;11.40;99.90
29731;DHT22;16639;51.488;0.152;2023-02-03T11:50:28;11.40;99.90
29731;DHT22;16639;51.488;0.152;2023-02-03T11:55:40;11.50;99.90
29731;DHT22;16639;51.488;0.152;2023-02-03T12:12:18;11.70;99.90
29731;DHT22;16639;51.488;0.152;2023-02-03T12:20:28;11.80;99.90
29731;DHT22;16639;51.488;0.152;2023-02-03T12:26:09;11.90;99.90
29731;DHT22;16639;51.488;0.152;2023-02-03T12:31:17;12.00;99.90
29731;DHT22;16639;51.488;0.152;2023-02-03T12:36:44;12.00;99.90
29731;DHT22;16639;51.488;0.152;2023-02-03T12:39:23;12.00;99.90
29731;DHT22;16639;51.488;0.152;2023-02-03T12:42:00;12.10;99.90
29731;DHT22;16639;51.488;0.152;2023-02-03T12:44:53;12.10;99.90
29731;DHT22;16639;51.488;0.152;2023-02-03T12:47:57;12.10;99.90
29731;DHT22;16639;51.488;0.152;2023-02-03T12:50:33;12.10;99.90
29731;DHT22;16639;51.488;0.152;2023-02-03T12:55:50;12.10;99.90
29731;DHT22;16639;51.488;0.152;2023-02-03T13:01:02;12.20;99.90
29731;DHT22;16639;51.488;0.152;2023-02-03T13:06:24;12.10;99.90
29731;DHT22;16639;51.488;0.152;2023-02-03T13:11:47;12.30;99.90
29731;DHT22;16639;51.488;0.152;2023-02-03T13:14:27;12.30;99.90
29731;DHT22;16639;51.488;0.152;2023-02-03T13:16:59;12.30;99.90
29731;DHT22;16639;51.488;0.152;2023-02-03T13:19:36;12.30;99.90
29731;DHT22;16639;51.488;0.152;2023-02-03T13:22:11;12.30;99.90
29731;DHT22;16639;51.488;0.152;2023-02-03T13:24:48;12.40;99.90
29731;DHT22;16639;51.488;0.152;2023-02-03T13:27:44;12.40;99.90
29731;DHT22;16639;51.488;0.152;2023-02-03T13:30:23;12.50;99.90
29731;DHT22;16639;51.488;0.152;2023-02-03T13:36:16;12.50;99.90
29731;DHT22;16639;51.488;0.152;2023-02-03T13:41:55;12.50;99.90
29731;DHT22;16639;51.488;0.152;2023-02-03T13:44:26;12.60;99.90
29731;DHT22;16639;51.488;0.152;2023-02-03T13:46:56;12.50;99.90
29731;DHT22;16639;51.488;0.152;2023-02-03T13:49:30;12.60;99.90
29731;DHT22;16639;51.488;0.152;2023-02-03T13:51:59;12.50;99.90
29731;DHT22;16639;51.488;0.152;2023-02-03T13:54:41;12.60;99.90
29731;DHT22;16639;51.488;0.152;2023-02-03T13:57:27;12.60;99.90
29731;DHT22;16639;51.488;0.152;2023-02-03T13:59:57;12.60;99.90
29731;DHT22;16639;51.488;0.152;2023-02-03T14:04:54;12.10;99.90
29731;DHT22;16639;51.488;0.152;2023-02-03T14:07:38;12.70;99.90
29731;DHT22;16639;51.488;0.152;2023-02-03T14:15:29;12.70;99.90
29731;DHT22;16639;51.488;0.152;2023-02-03T14:18:31;12.70;99.90
29731;DHT22;16639;51.488;0.152;2023-02-03T14:21:22;12.70;99.90
29731;DHT22;16639;51.488;0.152;2023-02-03T14:23:58;12.70;99.90
29731;DHT22;16639;51.488;0.152;2023-02-03T14:26:41;12.50;99.90
29731;DHT22;16639;51.488;0.152;2023-02-03T14:29:35;12.70;99.90
29731;DHT22;16639;51.488;0.152;2023-02-03T14:32:08;12.70;99.90
29731;DHT22;16639;51.488;0.152;2023-02-03T14:34:46;12.70;99.90
29731;DHT22;16639;51.488;0.152;2023-02-03T14:37:30;12.70;99.90
29731;DHT22;16639;51.488;0.152;2023-02-03T14:40:11;12.70;99.90
29731;DHT22;16639;51.488;0.152;2023-02-03T15:02:28;12.50;99.90
29731;DHT22;16639;51.488;0.152;2023-02-03T15:07:48;12.50;99.90
29731;DHT22;16639;51.488;0.152;2023-02-03T15:10:18;12.50;99.90
29731;DHT22;16639;51.488;0.152;2023-02-03T15:12:51;12.50;99.90
29731;DHT22;16639;51.488;0.152;2023-02-03T15:15:27;12.40;99.90
29731;DHT22;16639;51.488;0.152;2023-02-03T15:17:58;12.40;99.90
29731;DHT22;16639;51.488;0.152;2023-02-03T15:20:33;13.20;99.90
29731;DHT22;16639;51.488;0.152;2023-02-03T15:23:01;12.40;99.90
29731;DHT22;16639;51.488;0.152;2023-02-03T15:25:30;12.40;99.90
29731;DHT22;16639;51.488;0.152;2023-02-03T15:28:31;12.40;99.90
29731;DHT22;16639;51.488;0.152;2023-02-03T15:33:37;12.30;99.90
29731;DHT22;16639;51.488;0.152;2023-02-03T15:36:11;12.30;99.90
29731;DHT22;16639;51.488;0.152;2023-02-03T15:38:45;12.30;99.90
29731;DHT22;16639;51.488;0.152;2023-02-03T15:41:21;12.30;99.90
29731;DHT22;16639;51.488;0.152;2023-02-03T15:44:14;11.40;99.90
29731;DHT22;16639;51.488;0.152;2023-02-03T15:46:44;12.20;99.90
29731;DHT22;16639;51.488;0.152;2023-02-03T15:49:34;12.20;99.90
29731;DHT22;16639;51.488;0.152;2023-02-03T15:52:25;12.20;99.90
29731;DHT22;16639;51.488;0.152;2023-02-03T15:55:02;12.20;99.90
29731;DHT22;16639;51.488;0.152;2023-02-03T15:57:31;12.20;99.90
29731;DHT22;16639;51.488;0.152;2023-02-03T16:00:18;12.20;99.90
29731;DHT22;16639;51.488;0.152;2023-02-03T16:02:51;12.20;99.90
29731;DHT22;16639;51.488;0.152;2023-02-03T16:05:26;12.10;99.90
29731;DHT22;16639;51.488;0.152;2023-02-03T16:07:54;12.10;99.90
29731;DHT22;16639;51.488;0.152;2023-02-03T16:10:32;12.00;99.90
29731;DHT22;16639;51.488;0.152;2023-02-03T16:13:22;12.00;99.90
29731;DHT22;16639;51.488;0.152;2023-02-03T16:18:33;12.00;99.90
29731;DHT22;16639;51.488;0.152;2023-02-03T16:21:05;12.00;99.90
29731;DHT22;16639;51.488;0.152;2023-02-03T16:23:48;12.00;99.90
29731;DHT22;16639;51.488;0.152;2023-02-03T16:26:17;11.90;99.90
29731;DHT22;16639;51.488;0.152;2023-02-03T16:31:44;11.90;99.90
29731;DHT22;16639;51.488;0.152;2023-02-03T16:34:31;11.30;99.90
29731;DHT22;16639;51.488;0.152;2023-02-03T16:40:15;11.80;99.90
29731;DHT22;16639;51.488;0.152;2023-02-03T16:43:09;11.80;99.90
29731;DHT22;16639;51.488;0.152;2023-02-03T16:45:58;11.80;99.90
29731;DHT22;16639;51.488;0.152;2023-02-03T16:48:45;11.80;99.90
29731;DHT22;16639;51.488;0.152;2023-02-03T16:51:38;11.80;99.90
29731;DHT22;16639;51.488;0.152;2023-02-03T16:54:11;11.70;99.90
29731;DHT22;16639;51.488;0.152;2023-02-03T16:56:44;11.50;99.90
29731;DHT22;16639;51.488;0.152;2023-02-03T16:59:12;11.70;99.90
29731;DHT22;16639;51.488;0.152;2023-02-03T17:01:39;11.70;99.90
29731;DHT22;16639;51.488;0.152;2023-02-03T17:04:07;11.70;99.90
29731;DHT22;16639;51.488;0.152;2023-02-03T17:06:38;11.70;99.90
29731;DHT22;16639;51.488;0.152;2023-02-03T17:09:07;11.60;99.90
29731;DHT22;16639;51.488;0.152;2023-02-03T17:11:34;11.60;99.90
29731;DHT22;16639;51.488;0.152;2023-02-03T17:14:02;11.60;99.90
29731;DHT22;16639;51.488;0.152;2023-02-03T17:16:30;11.60;99.90
29731;DHT22;16639;51.488;0.152;2023-02-03T17:18:59;11.50;99.90
29731;DHT22;16639;51.488;0.152;2023-02-03T17:21:28;11.50;99.90
29731;DHT22;16639;51.488;0.152;2023-02-03T17:23:57;11.50;99.90
29731;DHT22;16639;51.488;0.152;2023-02-03T17:26:25;11.50;99.90
29731;DHT22;16639;51.488;0.152;2023-02-03T17:28:52;11.50;99.90
29731;DHT22;16639;51.488;0.152;2023-02-03T17:31:20;11.50;99.90
29731;DHT22;16639;51.488;0.152;2023-02-03T17:33:51;11.50;99.90
29731;DHT22;16639;51.488;0.152;2023-02-03T17:36:19;11.40;99.90
29731;DHT22;16639;51.488;0.152;2023-02-03T17:38:51;11.40;99.90
29731;DHT22;16639;51.488;0.152;2023-02-03T17:41:38;11.40;99.90
29731;DHT22;16639;51.488;0.152;2023-02-03T17:44:22;11.40;99.90
29731;DHT22;16639;51.488;0.152;2023-02-03T17:47:08;11.40;99.90
29731;DHT22;16639;51.488;0.152;2023-02-03T17:49:52;11.30;99.90
29731;DHT22;16639;51.488;0.152;2023-02-03T17:52:37;11.30;99.90
29731;DHT22;16639;51.488;0.152;2023-02-03T17:55:22;11.30;99.90
29731;DHT22;16639;51.488;0.152;2023-02-03T17:57:50;11.30;99.90
29731;DHT22;16639;51.488;0.152;2023-02-03T18:00:18;11.30;99.90
29731;DHT22;16639;51.488;0.152;2023-02-03T18:02:50;11.30;99.90
29731;DHT22;16639;51.488;0.152;2023-02-03T18:05:18;11.30;99.90
29731;DHT22;16639;51.488;0.152;2023-02-03T18:07:45;11.20;99.90
29731;DHT22;16639;51.488;0.152;2023-02-03T18:10:14;11.20;99.90
29731;DHT22;16639;51.488;0.152;2023-02-03T18:12:42;11.90;99.90
29731;DHT22;16639;51.488;0.152;2023-02-03T18:15:09;11.20;99.90
29731;DHT22;16639;51.488;0.152;2023-02-03T18:17:38;11.20;99.90
29731;DHT22;16639;51.488;0.152;2023-02-03T18:20:05;11.20;99.90
29731;DHT22;16639;51.488;0.152;2023-02-03T18:22:33;11.20;99.90
29731;DHT22;16639;51.488;0.152;2023-02-03T18:25:01;11.20;99.90
29731;DHT22;16639;51.488;0.152;2023-02-03T18:27:29;11.20;99.90
29731;DHT22;16639;51.488;0.152;2023-02-03T18:29:57;11.30;99.90
29731;DHT22;16639;51.488;0.152;2023-02-03T18:32:24;11.20;99.90
29731;DHT22;16639;51.488;0.152;2023-02-03T18:34:51;11.10;99.90
29731;DHT22;16639;51.488;0.152;2023-02-03T18:37:19;11.20;99.90
29731;DHT22;16639;51.488;0.152;2023-02-03T18:39:46;11.20;99.90
29731;DHT22;16639;51.488;0.152;2023-02-03T18:42:14;11.20;99.90
29731;DHT22;16639;51.488;0.152;2023-02-03T18:44:41;11.20;99.90
29731;DHT22;16639;51.488;0.152;2023-02-03T18:47:10;11.20;99.90
29731;DHT22;16639;51.488;0.152;2023-02-03T18:49:37;11.20;99.90
29731;DHT22;16639;51.488;0.152;2023-02-03T18:52:05;11.20;99.90